sensor_id;sensor_type;location;lat;lon;timestamp;pressure;altitude;pressure_sealevel;temperature
20490;BMP280;10403;54.092;12.122;2024-02-21T00:01:24;101944.50;;;9.77
20490;BMP280;10403;54.092;12.122;2024-02-21T00:03:52;101935.78;;;9.76
20490;BMP280;10403;54.092;12.122;2024-02-21T00:06:19;101934.00;;;9.74
20490;BMP280;10403;54.092;12.122;2024-02-21T00:08:47;101933.16;;;9.76
20490;BMP280;10403;54.092;12.122;2024-02-21T00:11:14;101918.34;;;9.75
20490;BMP280;10403;54.092;12.122;2024-02-21T00:13:42;101915.75;;;9.78
20490;BMP280;10403;54.092;12.122;2024-02-21T00:16:09;101906.19;;;9.79
20490;BMP280;10403;54.092;12.122;2024-02-21T00:18:37;101897.47;;;9.78
20490;BMP280;10403;54.092;12.122;2024-02-21T00:21:05;101894.81;;;9.75
20490;BMP280;10403;54.092;12.122;2024-02-21T00:23:32;101909.66;;;9.81
20490;BMP280;10403;54.092;12.122;2024-02-21T00:25:59;101898.31;;;9.80
20490;BMP280;10403;54.092;12.122;2024-02-21T00:28:27;101892.25;;;9.81
20490;BMP280;10403;54.092;12.122;2024-02-21T00:30:54;101885.28;;;9.79
20490;BMP280;10403;54.092;12.122;2024-02-21T00:33:21;101878.28;;;9.81
20490;BMP280;10403;54.092;12.122;2024-02-21T00:35:49;101882.66;;;9.80
20490;BMP280;10403;54.092;12.122;2024-02-21T00:38:16;101875.69;;;9.79
20490;BMP280;10403;54.092;12.122;2024-02-21T00:40:43;101872.22;;;9.82
20490;BMP280;10403;54.092;12.122;2024-02-21T00:43:10;101865.25;;;9.82
20490;BMP280;10403;54.092;12.122;2024-02-21T00:45:38;101866.13;;;9.83
20490;BMP280;10403;54.092;12.122;2024-02-21T00:48:06;101861.75;;;9.82
20490;BMP280;10403;54.092;12.122;2024-02-21T00:50:33;101860.88;;;9.80
20490;BMP280;10403;54.092;12.122;2024-02-21T00:53:00;101862.63;;;9.81
20490;BMP280;10403;54.092;12.122;2024-02-21T00:55:28;101852.16;;;9.78
20490;BMP280;10403;54.092;12.122;2024-02-21T00:57:55;101848.66;;;9.80
20490;BMP280;10403;54.092;12.122;2024-02-21T01:00:22;101839.09;;;9.79
20490;BMP280;10403;54.092;12.122;2024-02-21T01:02:50;101833.00;;;9.80
20490;BMP280;10403;54.092;12.122;2024-02-21T01:05:20;101830.38;;;9.80
20490;BMP280;10403;54.092;12.122;2024-02-21T01:07:47;101826.88;;;9.80
20490;BMP280;10403;54.092;12.122;2024-02-21T01:10:15;101819.94;;;9.77
20490;BMP280;10403;54.092;12.122;2024-02-21T01:12:42;101820.81;;;9.79
20490;BMP280;10403;54.092;12.122;2024-02-21T01:15:09;101816.44;;;9.78
20490;BMP280;10403;54.092;12.122;2024-02-21T01:17:37;101812.09;;;9.79
20490;BMP280;10403;54.092;12.122;2024-02-21T01:20:08;101807.75;;;9.79
20490;BMP280;10403;54.092;12.122;2024-02-21T01:22:35;101799.91;;;9.78
20490;BMP280;10403;54.092;12.122;2024-02-21T01:25:03;101797.28;;;9.79
20490;BMP280;10403;54.092;12.122;2024-02-21T01:27:30;101784.22;;;9.81
20490;BMP280;10403;54.092;12.122;2024-02-21T01:29:57;101771.13;;;9.76
20490;BMP280;10403;54.092;12.122;2024-02-21T01:32:24;101763.25;;;9.72
20490;BMP280;10403;54.092;12.122;2024-02-21T01:34:52;101773.75;;;9.81
20490;BMP280;10403;54.092;12.122;2024-02-21T01:37:19;101758.06;;;9.81
20490;BMP280;10403;54.092;12.122;2024-02-21T01:39:47;101760.69;;;9.81
20490;BMP280;10403;54.092;12.122;2024-02-21T01:42:14;101752.88;;;9.79
20490;BMP280;10403;54.092;12.122;2024-02-21T01:44:41;101746.75;;;9.80
20490;BMP280;10403;54.092;12.122;2024-02-21T01:47:08;101738.06;;;9.78
20490;BMP280;10403;54.092;12.122;2024-02-21T01:49:36;101750.25;;;9.81
20490;BMP280;10403;54.092;12.122;2024-02-21T01:52:03;101740.66;;;9.80
20490;BMP280;10403;54.092;12.122;2024-02-21T01:54:31;101711.00;;;9.69
20490;BMP280;10403;54.092;12.122;2024-02-21T01:56:59;101724.97;;;9.81
20490;BMP280;10403;54.092;12.122;2024-02-21T01:59:27;101721.50;;;9.82
20490;BMP280;10403;54.092;12.122;2024-02-21T02:01:56;101717.13;;;9.80
20490;BMP280;10403;54.092;12.122;2024-02-21T02:04:24;101717.16;;;9.86
20490;BMP280;10403;54.092;12.122;2024-02-21T02:06:54;101711.06;;;9.85
20490;BMP280;10403;54.092;12.122;2024-02-21T02:09:22;101698.84;;;9.80
20490;BMP280;10403;54.092;12.122;2024-02-21T02:11:50;101690.13;;;9.78
20490;BMP280;10403;54.092;12.122;2024-02-21T02:14:17;101709.31;;;9.84
20490;BMP280;10403;54.092;12.122;2024-02-21T02:16:48;101702.34;;;9.85
20490;BMP280;10403;54.092;12.122;2024-02-21T02:19:15;101692.75;;;9.84
20490;BMP280;10403;54.092;12.122;2024-02-21T02:21:50;101674.47;;;9.82
20490;BMP280;10403;54.092;12.122;2024-02-21T02:24:24;101684.94;;;9.87
20490;BMP280;10403;54.092;12.122;2024-02-21T02:26:53;101676.22;;;9.83
20490;BMP280;10403;54.092;12.122;2024-02-21T02:29:20;101652.69;;;9.82
20490;BMP280;10403;54.092;12.122;2024-02-21T02:31:49;101657.94;;;9.88
20490;BMP280;10403;54.092;12.122;2024-02-21T02:34:16;101662.31;;;9.89
20490;BMP280;10403;54.092;12.122;2024-02-21T02:36:43;101657.06;;;9.90
20490;BMP280;10403;54.092;12.122;2024-02-21T02:39:11;101658.81;;;9.91
20490;BMP280;10403;54.092;12.122;2024-02-21T02:41:38;101654.44;;;9.90
20490;BMP280;10403;54.092;12.122;2024-02-21T02:44:05;101650.97;;;9.91
20490;BMP280;10403;54.092;12.122;2024-02-21T02:46:32;101650.97;;;9.91
20490;BMP280;10403;54.092;12.122;2024-02-21T02:49:01;101643.13;;;9.93
20490;BMP280;10403;54.092;12.122;2024-02-21T02:51:28;101630.94;;;9.93
20490;BMP280;10403;54.092;12.122;2024-02-21T02:53:56;101623.09;;;9.93
20490;BMP280;10403;54.092;12.122;2024-02-21T02:56:24;101619.63;;;9.94
20490;BMP280;10403;54.092;12.122;2024-02-21T02:58:51;101620.50;;;9.96
20490;BMP280;10403;54.092;12.122;2024-02-21T03:01:19;101614.41;;;9.94
20490;BMP280;10403;54.092;12.122;2024-02-21T03:03:46;101581.28;;;9.87
20490;BMP280;10403;54.092;12.122;2024-02-21T03:06:14;101583.03;;;9.94
20490;BMP280;10403;54.092;12.122;2024-02-21T03:08:42;101569.97;;;9.96
20490;BMP280;10403;54.092;12.122;2024-02-21T03:11:09;101555.16;;;9.93
20490;BMP280;10403;54.092;12.122;2024-02-21T03:13:38;101557.75;;;9.93
20490;BMP280;10403;54.092;12.122;2024-02-21T03:16:06;101555.16;;;9.95
20490;BMP280;10403;54.092;12.122;2024-02-21T03:18:33;101545.56;;;9.95
20490;BMP280;10403;54.092;12.122;2024-02-21T03:21:00;101549.91;;;9.90
20490;BMP280;10403;54.092;12.122;2024-02-21T03:23:28;101564.75;;;9.96
20490;BMP280;10403;54.092;12.122;2024-02-21T03:25:55;101573.44;;;9.95
20490;BMP280;10403;54.092;12.122;2024-02-21T03:28:22;101569.09;;;9.95
20490;BMP280;10403;54.092;12.122;2024-02-21T03:30:50;101566.47;;;9.94
20490;BMP280;10403;54.092;12.122;2024-02-21T03:33:17;101547.28;;;9.90
20490;BMP280;10403;54.092;12.122;2024-02-21T03:35:44;101548.19;;;9.98
20490;BMP280;10403;54.092;12.122;2024-02-21T03:38:11;101552.53;;;9.99
20490;BMP280;10403;54.092;12.122;2024-02-21T03:40:39;101547.28;;;9.99
20490;BMP280;10403;54.092;12.122;2024-02-21T03:43:06;101539.44;;;9.99
20490;BMP280;10403;54.092;12.122;2024-02-21T03:45:33;101559.50;;;10.00
20490;BMP280;10403;54.092;12.122;2024-02-21T03:48:00;101558.66;;;9.98
20490;BMP280;10403;54.092;12.122;2024-02-21T03:50:28;101555.16;;;10.01
20490;BMP280;10403;54.092;12.122;2024-02-21T03:52:56;101551.66;;;9.99
20490;BMP280;10403;54.092;12.122;2024-02-21T03:55:24;101553.41;;;9.98
20490;BMP280;10403;54.092;12.122;2024-02-21T03:57:51;101551.66;;;10.00
20490;BMP280;10403;54.092;12.122;2024-02-21T04:00:18;101539.47;;;9.96
20490;BMP280;10403;54.092;12.122;2024-02-21T04:02:46;101553.41;;;10.01
20490;BMP280;10403;54.092;12.122;2024-02-21T04:05:16;101555.16;;;10.02
20490;BMP280;10403;54.092;12.122;2024-02-21T04:07:44;101558.63;;;10.01
20490;BMP280;10403;54.092;12.122;2024-02-21T04:10:12;101549.91;;;10.02
20490;BMP280;10403;54.092;12.122;2024-02-21T04:12:39;101549.03;;;10.00
20490;BMP280;10403;54.092;12.122;2024-02-21T04:15:07;101548.19;;;10.05
20490;BMP280;10403;54.092;12.122;2024-02-21T04:17:34;101554.28;;;10.05
20490;BMP280;10403;54.092;12.122;2024-02-21T04:20:05;101547.31;;;10.04
20490;BMP280;10403;54.092;12.122;2024-02-21T04:22:33;101528.13;;;9.99
20490;BMP280;10403;54.092;12.122;2024-02-21T04:25:01;101532.50;;;10.08
20490;BMP280;10403;54.092;12.122;2024-02-21T04:27:28;101533.38;;;10.08
20490;BMP280;10403;54.092;12.122;2024-02-21T04:29:55;101537.72;;;10.09
20490;BMP280;10403;54.092;12.122;2024-02-21T04:32:23;101542.06;;;10.10
20490;BMP280;10403;54.092;12.122;2024-02-21T04:34:50;101540.34;;;10.11
20490;BMP280;10403;54.092;12.122;2024-02-21T04:37:18;101534.25;;;10.09
20490;BMP280;10403;54.092;12.122;2024-02-21T04:39:46;101536.84;;;10.12
20490;BMP280;10403;54.092;12.122;2024-02-21T04:42:13;101524.66;;;10.06
20490;BMP280;10403;54.092;12.122;2024-02-21T04:44:41;101494.16;;;9.91
20490;BMP280;10403;54.092;12.122;2024-02-21T04:47:08;101538.59;;;10.14
20490;BMP280;10403;54.092;12.122;2024-02-21T04:49:36;101529.88;;;10.14
20490;BMP280;10403;54.092;12.122;2024-02-21T04:52:03;101530.75;;;10.13
20490;BMP280;10403;54.092;12.122;2024-02-21T04:54:31;101533.38;;;10.16
20490;BMP280;10403;54.092;12.122;2024-02-21T04:56:59;101528.16;;;10.14
20490;BMP280;10403;54.092;12.122;2024-02-21T04:59:26;101537.75;;;10.14
20490;BMP280;10403;54.092;12.122;2024-02-21T05:01:53;101529.03;;;10.09
20490;BMP280;10403;54.092;12.122;2024-02-21T05:04:21;101532.50;;;10.14
20490;BMP280;10403;54.092;12.122;2024-02-21T05:06:48;101531.63;;;10.10
20490;BMP280;10403;54.092;12.122;2024-02-21T05:09:16;101537.75;;;10.14
20490;BMP280;10403;54.092;12.122;2024-02-21T05:11:43;101536.00;;;10.16
20490;BMP280;10403;54.092;12.122;2024-02-21T05:14:10;101538.63;;;10.16
20490;BMP280;10403;54.092;12.122;2024-02-21T05:16:39;101535.13;;;10.15
20490;BMP280;10403;54.092;12.122;2024-02-21T05:19:07;101527.28;;;10.17
20490;BMP280;10403;54.092;12.122;2024-02-21T05:21:34;101529.06;;;10.18
20490;BMP280;10403;54.092;12.122;2024-02-21T05:24:02;101532.56;;;10.18
20490;BMP280;10403;54.092;12.122;2024-02-21T05:26:29;101531.66;;;10.19
20490;BMP280;10403;54.092;12.122;2024-02-21T05:28:56;101534.28;;;10.19
20490;BMP280;10403;54.092;12.122;2024-02-21T05:34:20;101543.00;;;10.20
20490;BMP280;10403;54.092;12.122;2024-02-21T05:36:48;101535.16;;;10.20
20490;BMP280;10403;54.092;12.122;2024-02-21T05:39:17;101528.16;;;10.17
20490;BMP280;10403;54.092;12.122;2024-02-21T05:41:45;101534.28;;;10.21
20490;BMP280;10403;54.092;12.122;2024-02-21T05:44:13;101531.66;;;10.21
20490;BMP280;10403;54.092;12.122;2024-02-21T05:46:40;101529.91;;;10.21
20490;BMP280;10403;54.092;12.122;2024-02-21T05:49:07;101536.88;;;10.21
20490;BMP280;10403;54.092;12.122;2024-02-21T05:51:35;101549.09;;;10.22
20490;BMP280;10403;54.092;12.122;2024-02-21T05:54:02;101537.78;;;10.23
20490;BMP280;10403;54.092;12.122;2024-02-21T05:56:30;101537.75;;;10.14
20490;BMP280;10403;54.092;12.122;2024-02-21T05:58:57;101551.72;;;10.22
20490;BMP280;10403;54.092;12.122;2024-02-21T06:01:25;101556.94;;;10.22
20490;BMP280;10403;54.092;12.122;2024-02-21T06:03:52;101566.53;;;10.20
20490;BMP280;10403;54.092;12.122;2024-02-21T06:06:19;101558.69;;;10.18
20490;BMP280;10403;54.092;12.122;2024-02-21T06:08:49;101571.75;;;10.17
20490;BMP280;10403;54.092;12.122;2024-02-21T06:11:16;101571.72;;;10.15
20490;BMP280;10403;54.092;12.122;2024-02-21T06:13:44;101565.63;;;10.12
20490;BMP280;10403;54.092;12.122;2024-02-21T06:16:11;101550.81;;;10.08
20490;BMP280;10403;54.092;12.122;2024-02-21T06:18:38;101559.53;;;10.05
20490;BMP280;10403;54.092;12.122;2024-02-21T06:21:06;101570.84;;;10.02
20490;BMP280;10403;54.092;12.122;2024-02-21T06:23:33;101567.34;;;10.00
20490;BMP280;10403;54.092;12.122;2024-02-21T06:26:00;101554.28;;;9.97
20490;BMP280;10403;54.092;12.122;2024-02-21T06:28:28;101560.38;;;9.98
20490;BMP280;10403;54.092;12.122;2024-02-21T06:30:55;101561.25;;;9.97
20490;BMP280;10403;54.092;12.122;2024-02-21T06:33:22;101556.00;;;9.94
20490;BMP280;10403;54.092;12.122;2024-02-21T06:35:52;101538.56;;;9.91
20490;BMP280;10403;54.092;12.122;2024-02-21T06:38:20;101547.28;;;9.90
20490;BMP280;10403;54.092;12.122;2024-02-21T06:40:47;101535.09;;;9.89
20490;BMP280;10403;54.092;12.122;2024-02-21T06:43:19;101529.88;;;9.83
20490;BMP280;10403;54.092;12.122;2024-02-21T06:45:47;101537.72;;;9.86
20490;BMP280;10403;54.092;12.122;2024-02-21T06:48:18;101535.09;;;9.86
20490;BMP280;10403;54.092;12.122;2024-02-21T06:50:46;101532.50;;;9.86
20490;BMP280;10403;54.092;12.122;2024-02-21T06:53:14;101542.94;;;9.89
20490;BMP280;10403;54.092;12.122;2024-02-21T06:55:41;101529.00;;;9.84
20490;BMP280;10403;54.092;12.122;2024-02-21T06:58:08;101549.03;;;9.91
20490;BMP280;10403;54.092;12.122;2024-02-21T07:00:42;101553.41;;;9.92
20490;BMP280;10403;54.092;12.122;2024-02-21T07:03:09;101539.47;;;9.93
20490;BMP280;10403;54.092;12.122;2024-02-21T07:05:36;101539.47;;;9.93
20490;BMP280;10403;54.092;12.122;2024-02-21T07:08:04;101538.59;;;9.93
20490;BMP280;10403;54.092;12.122;2024-02-21T07:10:32;101535.97;;;9.91
20490;BMP280;10403;54.092;12.122;2024-02-21T07:12:59;101527.25;;;9.89
20490;BMP280;10403;54.092;12.122;2024-02-21T07:15:27;101517.66;;;9.84
20490;BMP280;10403;54.092;12.122;2024-02-21T07:17:55;101521.16;;;9.84
20490;BMP280;10403;54.092;12.122;2024-02-21T07:20:22;101518.53;;;9.81
20490;BMP280;10403;54.092;12.122;2024-02-21T07:22:50;101516.78;;;9.77
20490;BMP280;10403;54.092;12.122;2024-02-21T07:25:18;101530.75;;;9.79
20490;BMP280;10403;54.092;12.122;2024-02-21T07:27:45;101524.66;;;9.79
20490;BMP280;10403;54.092;12.122;2024-02-21T07:30:13;101519.41;;;9.79
20490;BMP280;10403;54.092;12.122;2024-02-21T07:32:43;101487.16;;;9.57
20490;BMP280;10403;54.092;12.122;2024-02-21T07:35:11;101515.06;;;9.76
20490;BMP280;10403;54.092;12.122;2024-02-21T07:37:39;101522.03;;;9.83
20490;BMP280;10403;54.092;12.122;2024-02-21T07:40:15;101526.38;;;9.84
20490;BMP280;10403;54.092;12.122;2024-02-21T07:42:43;101526.38;;;9.86
20490;BMP280;10403;54.092;12.122;2024-02-21T07:45:14;101531.63;;;9.89
20490;BMP280;10403;54.092;12.122;2024-02-21T07:47:42;101523.78;;;9.84
20490;BMP280;10403;54.092;12.122;2024-02-21T07:50:09;101520.28;;;9.91
20490;BMP280;10403;54.092;12.122;2024-02-21T07:52:37;101525.53;;;9.94
20490;BMP280;10403;54.092;12.122;2024-02-21T07:55:05;101515.94;;;9.92
20490;BMP280;10403;54.092;12.122;2024-02-21T07:57:32;101519.44;;;9.98
20490;BMP280;10403;54.092;12.122;2024-02-21T07:59:59;101519.44;;;9.98
20490;BMP280;10403;54.092;12.122;2024-02-21T08:02:28;101518.53;;;10.01
20490;BMP280;10403;54.092;12.122;2024-02-21T08:04:55;101512.44;;;9.99
20490;BMP280;10403;54.092;12.122;2024-02-21T08:07:22;101519.44;;;10.05
20490;BMP280;10403;54.092;12.122;2024-02-21T08:09:49;101523.81;;;10.07
20490;BMP280;10403;54.092;12.122;2024-02-21T08:12:17;101515.09;;;10.07
20490;BMP280;10403;54.092;12.122;2024-02-21T08:14:44;101518.56;;;10.09
20490;BMP280;10403;54.092;12.122;2024-02-21T08:17:11;101522.03;;;10.09
20490;BMP280;10403;54.092;12.122;2024-02-21T08:19:39;101514.22;;;10.08
20490;BMP280;10403;54.092;12.122;2024-02-21T08:22:06;101520.31;;;10.08
20490;BMP280;10403;54.092;12.122;2024-02-21T08:24:33;101527.28;;;10.08
20490;BMP280;10403;54.092;12.122;2024-02-21T08:27:01;101525.53;;;10.07
20490;BMP280;10403;54.092;12.122;2024-02-21T08:29:28;101530.75;;;10.05
20490;BMP280;10403;54.092;12.122;2024-02-21T08:31:55;101523.78;;;10.06
20490;BMP280;10403;54.092;12.122;2024-02-21T08:34:23;101523.81;;;10.09
20490;BMP280;10403;54.092;12.122;2024-02-21T08:36:50;101519.41;;;10.09
20490;BMP280;10403;54.092;12.122;2024-02-21T08:39:18;101518.56;;;10.12
20490;BMP280;10403;54.092;12.122;2024-02-21T08:41:46;101518.56;;;10.12
20490;BMP280;10403;54.092;12.122;2024-02-21T08:44:24;101523.78;;;10.13
20490;BMP280;10403;54.092;12.122;2024-02-21T08:46:55;101514.22;;;10.14
20490;BMP280;10403;54.092;12.122;2024-02-21T08:49:24;101515.06;;;10.11
20490;BMP280;10403;54.092;12.122;2024-02-21T08:52:03;101522.03;;;10.14
20490;BMP280;10403;54.092;12.122;2024-02-21T08:54:32;101514.22;;;10.15
20490;BMP280;10403;54.092;12.122;2024-02-21T08:57:02;101505.50;;;10.15
20490;BMP280;10403;54.092;12.122;2024-02-21T08:59:30;101508.97;;;10.17
20490;BMP280;10403;54.092;12.122;2024-02-21T09:01:57;101526.44;;;10.27
20490;BMP280;10403;54.092;12.122;2024-02-21T09:04:25;101522.09;;;10.27
20490;BMP280;10403;54.092;12.122;2024-02-21T09:06:52;101529.94;;;10.36
20490;BMP280;10403;54.092;12.122;2024-02-21T09:09:19;101525.53;;;10.38
20490;BMP280;10403;54.092;12.122;2024-02-21T09:11:47;101523.81;;;10.36
20490;BMP280;10403;54.092;12.122;2024-02-21T09:14:14;101542.13;;;10.47
20490;BMP280;10403;54.092;12.122;2024-02-21T09:16:42;101550.81;;;10.49
20490;BMP280;10403;54.092;12.122;2024-02-21T09:19:11;101542.97;;;10.50
20490;BMP280;10403;54.092;12.122;2024-02-21T09:21:38;101545.59;;;10.50
20490;BMP280;10403;54.092;12.122;2024-02-21T09:24:06;101538.63;;;10.54
20490;BMP280;10403;54.092;12.122;2024-02-21T09:26:33;101524.69;;;10.55
20490;BMP280;10403;54.092;12.122;2024-02-21T09:29:01;101524.66;;;10.58
20490;BMP280;10403;54.092;12.122;2024-02-21T09:31:28;101524.66;;;10.59
20490;BMP280;10403;54.092;12.122;2024-02-21T09:33:56;101526.41;;;10.63
20490;BMP280;10403;54.092;12.122;2024-02-21T09:36:23;101534.25;;;10.66
20490;BMP280;10403;54.092;12.122;2024-02-21T09:38:51;101535.97;;;10.70
20490;BMP280;10403;54.092;12.122;2024-02-21T09:41:26;101540.34;;;10.74
20490;BMP280;10403;54.092;12.122;2024-02-21T09:43:54;101532.50;;;10.76
20490;BMP280;10403;54.092;12.122;2024-02-21T09:49:30;101536.81;;;10.85
20490;BMP280;10403;54.092;12.122;2024-02-21T09:52:04;101528.06;;;10.89
20490;BMP280;10403;54.092;12.122;2024-02-21T09:54:35;101529.81;;;10.91
20490;BMP280;10403;54.092;12.122;2024-02-21T09:57:03;101523.69;;;10.97
20490;BMP280;10403;54.092;12.122;2024-02-21T09:59:33;101545.50;;;11.02
20490;BMP280;10403;54.092;12.122;2024-02-21T10:02:01;101539.38;;;11.06
20490;BMP280;10403;54.092;12.122;2024-02-21T10:04:29;101539.34;;;11.09
20490;BMP280;10403;54.092;12.122;2024-02-21T10:06:57;101540.22;;;11.14
20490;BMP280;10403;54.092;12.122;2024-02-21T10:09:27;101528.00;;;11.15
20490;BMP280;10403;54.092;12.122;2024-02-21T10:12:07;101541.94;;;11.23
20490;BMP280;10403;54.092;12.122;2024-02-21T10:14:35;101528.00;;;11.16
20490;BMP280;10403;54.092;12.122;2024-02-21T10:17:02;101534.06;;;11.24
20490;BMP280;10403;54.092;12.122;2024-02-21T10:19:31;101547.19;;;11.24
20490;BMP280;10403;54.092;12.122;2024-02-21T10:22:08;101553.28;;;11.19
20490;BMP280;10403;54.092;12.122;2024-02-21T10:24:37;101554.19;;;11.16
20490;BMP280;10403;54.092;12.122;2024-02-21T10:27:07;101547.22;;;11.12
20490;BMP280;10403;54.092;12.122;2024-02-21T10:29:41;101529.78;;;11.02
20490;BMP280;10403;54.092;12.122;2024-02-21T10:32:11;101528.03;;;10.99
20490;BMP280;10403;54.092;12.122;2024-02-21T10:34:42;101527.16;;;11.02
20490;BMP280;10403;54.092;12.122;2024-02-21T10:37:11;101535.91;;;11.01
20490;BMP280;10403;54.092;12.122;2024-02-21T10:39:42;101521.06;;;11.01
20490;BMP280;10403;54.092;12.122;2024-02-21T10:42:11;101514.94;;;11.01
20490;BMP280;10403;54.092;12.122;2024-02-21T10:44:41;101493.16;;;10.94
20490;BMP280;10403;54.092;12.122;2024-02-21T10:47:11;101517.53;;;11.07
20490;BMP280;10403;54.092;12.122;2024-02-21T10:49:44;101452.22;;;10.73
20490;BMP280;10403;54.092;12.122;2024-02-21T10:55:20;101506.19;;;11.11
20490;BMP280;10403;54.092;12.122;2024-02-21T10:57:52;101500.94;;;11.11
20490;BMP280;10403;54.092;12.122;2024-02-21T11:00:20;101496.59;;;11.07
20490;BMP280;10403;54.092;12.122;2024-02-21T11:02:49;101507.06;;;11.16
20490;BMP280;10403;54.092;12.122;2024-02-21T11:05:18;101492.19;;;11.18
20490;BMP280;10403;54.092;12.122;2024-02-21T11:07:46;101488.69;;;11.21
20490;BMP280;10403;54.092;12.122;2024-02-21T11:10:24;101507.88;;;11.24
20490;BMP280;10403;54.092;12.122;2024-02-21T11:13:11;101478.19;;;11.25
20490;BMP280;10403;54.092;12.122;2024-02-21T11:15:38;101477.28;;;11.29
20490;BMP280;10403;54.092;12.122;2024-02-21T11:18:05;101473.78;;;11.32
20490;BMP280;10403;54.092;12.122;2024-02-21T11:20:38;101474.66;;;11.35
20490;BMP280;10403;54.092;12.122;2024-02-21T11:23:05;101466.75;;;11.40
20490;BMP280;10403;54.092;12.122;2024-02-21T11:25:34;101465.00;;;11.39
20490;BMP280;10403;54.092;12.122;2024-02-21T11:28:05;101462.31;;;11.48
20490;BMP280;10403;54.092;12.122;2024-02-21T11:30:37;101461.44;;;11.50
20490;BMP280;10403;54.092;12.122;2024-02-21T11:33:07;101460.56;;;11.52
20490;BMP280;10403;54.092;12.122;2024-02-21T11:35:36;101454.47;;;11.48
20490;BMP280;10403;54.092;12.122;2024-02-21T11:38:12;101453.56;;;11.55
20490;BMP280;10403;54.092;12.122;2024-02-21T11:40:47;101447.41;;;11.58
20490;BMP280;10403;54.092;12.122;2024-02-21T11:43:15;101448.28;;;11.60
20490;BMP280;10403;54.092;12.122;2024-02-21T11:45:44;101448.28;;;11.61
20490;BMP280;10403;54.092;12.122;2024-02-21T11:48:11;101444.75;;;11.64
20490;BMP280;10403;54.092;12.122;2024-02-21T11:50:38;101446.47;;;11.66
20490;BMP280;10403;54.092;12.122;2024-02-21T11:53:09;101450.84;;;11.69
20490;BMP280;10403;54.092;12.122;2024-02-21T11:55:36;101442.94;;;11.72
20490;BMP280;10403;54.092;12.122;2024-02-21T11:58:04;101441.19;;;11.72
20490;BMP280;10403;54.092;12.122;2024-02-21T12:00:31;101427.22;;;11.72
20490;BMP280;10403;54.092;12.122;2024-02-21T12:02:59;101432.47;;;11.72
20490;BMP280;10403;54.092;12.122;2024-02-21T12:05:30;101425.47;;;11.71
20490;BMP280;10403;54.092;12.122;2024-02-21T12:07:58;101406.25;;;11.72
20490;BMP280;10403;54.092;12.122;2024-02-21T12:10:26;101407.97;;;11.76
20490;BMP280;10403;54.092;12.122;2024-02-21T12:13:06;101426.31;;;11.79
20490;BMP280;10403;54.092;12.122;2024-02-21T12:15:34;101400.97;;;11.79
20490;BMP280;10403;54.092;12.122;2024-02-21T12:18:03;101374.81;;;11.72
20490;BMP280;10403;54.092;12.122;2024-02-21T12:20:31;101388.75;;;11.80
20490;BMP280;10403;54.092;12.122;2024-02-21T12:23:02;101387.84;;;11.84
20490;BMP280;10403;54.092;12.122;2024-02-21T12:25:31;101376.44;;;11.86
20490;BMP280;10403;54.092;12.122;2024-02-21T12:27:58;101382.53;;;11.89
20490;BMP280;10403;54.092;12.122;2024-02-21T12:30:28;101379.00;;;11.94
20490;BMP280;10403;54.092;12.122;2024-02-21T12:32:55;101369.34;;;11.96
20490;BMP280;10403;54.092;12.122;2024-02-21T12:35:23;101376.31;;;12.02
20490;BMP280;10403;54.092;12.122;2024-02-21T12:37:50;101368.44;;;12.03
20490;BMP280;10403;54.092;12.122;2024-02-21T12:40:18;101363.13;;;12.05
20490;BMP280;10403;54.092;12.122;2024-02-21T12:42:45;101364.94;;;12.04
20490;BMP280;10403;54.092;12.122;2024-02-21T12:45:13;101357.06;;;12.04
20490;BMP280;10403;54.092;12.122;2024-02-21T12:47:42;101361.44;;;12.04
20490;BMP280;10403;54.092;12.122;2024-02-21T12:50:10;101356.22;;;12.01
20490;BMP280;10403;54.092;12.122;2024-02-21T12:52:37;101355.31;;;12.03
20490;BMP280;10403;54.092;12.122;2024-02-21T12:55:05;101357.06;;;12.01
20490;BMP280;10403;54.092;12.122;2024-02-21T12:57:33;101334.50;;;11.85
20490;BMP280;10403;54.092;12.122;2024-02-21T13:00:00;101357.09;;;11.98
20490;BMP280;10403;54.092;12.122;2024-02-21T13:02:28;101344.00;;;11.97
20490;BMP280;10403;54.092;12.122;2024-02-21T13:04:55;101348.34;;;11.99
20490;BMP280;10403;54.092;12.122;2024-02-21T13:07:23;101349.22;;;12.01
20490;BMP280;10403;54.092;12.122;2024-02-21T13:09:50;101344.81;;;12.03
20490;BMP280;10403;54.092;12.122;2024-02-21T13:12:18;101347.41;;;12.05
20490;BMP280;10403;54.092;12.122;2024-02-21T13:14:45;101326.50;;;11.99
20490;BMP280;10403;54.092;12.122;2024-02-21T13:17:12;101317.00;;;11.90
20490;BMP280;10403;54.092;12.122;2024-02-21T13:19:42;101334.38;;;12.00
20490;BMP280;10403;54.092;12.122;2024-02-21T13:22:09;101334.34;;;12.03
20490;BMP280;10403;54.092;12.122;2024-02-21T13:24:37;101342.16;;;12.06
20490;BMP280;10403;54.092;12.122;2024-02-21T13:27:04;101332.59;;;12.01
20490;BMP280;10403;54.092;12.122;2024-02-21T13:29:31;101341.25;;;12.10
20490;BMP280;10403;54.092;12.122;2024-02-21T13:31:59;101334.25;;;12.09
20490;BMP280;10403;54.092;12.122;2024-02-21T13:34:26;101338.63;;;12.12
20490;BMP280;10403;54.092;12.122;2024-02-21T13:36:54;101334.25;;;12.12
20490;BMP280;10403;54.092;12.122;2024-02-21T13:39:21;101325.50;;;12.12
20490;BMP280;10403;54.092;12.122;2024-02-21T13:41:49;101331.63;;;12.12
20490;BMP280;10403;54.092;12.122;2024-02-21T13:44:16;101317.63;;;12.12
20490;BMP280;10403;54.092;12.122;2024-02-21T13:46:44;101315.88;;;12.12
20490;BMP280;10403;54.092;12.122;2024-02-21T13:49:11;101319.38;;;12.13
20490;BMP280;10403;54.092;12.122;2024-02-21T13:51:39;101317.63;;;12.13
20490;BMP280;10403;54.092;12.122;2024-02-21T13:54:08;101326.41;;;12.09
20490;BMP280;10403;54.092;12.122;2024-02-21T13:56:39;101312.41;;;12.10
20490;BMP280;10403;54.092;12.122;2024-02-21T13:59:06;101314.16;;;12.08
20490;BMP280;10403;54.092;12.122;2024-02-21T14:01:34;101316.78;;;12.08
20490;BMP280;10403;54.092;12.122;2024-02-21T14:04:03;101295.91;;;11.99